createdAt,value
2022-11-05T00:00:40.127Z,23.25
2022-11-05T00:03:27.953Z,12.63
2022-11-05T00:06:14.400Z,13.50
2022-11-05T00:09:01.050Z,7.32
2022-11-05T00:11:45.351Z,6.82
2022-11-05T00:14:31.787Z,6.35
2022-11-05T00:17:00.874Z,5.68
2022-11-05T00:19:29.837Z,3.58
2022-11-05T00:22:16.123Z,4.95
2022-11-05T00:25:02.409Z,7.32
2022-11-05T00:27:34.261Z,6.72
2022-11-05T00:30:09.286Z,5.38
2022-11-05T00:32:39.009Z,7.93
2022-11-05T00:35:09.520Z,2.90
2022-11-05T00:37:38.486Z,8.52
2022-11-05T00:40:08.664Z,5.60
2022-11-05T00:42:58.693Z,3.75
2022-11-05T00:45:27.877Z,5.65
2022-11-05T00:48:17.717Z,6.05
2022-11-05T00:50:46.721Z,5.15
2022-11-05T00:53:15.668Z,4.78
2022-11-05T00:55:46.708Z,5.43
2022-11-05T00:58:19.089Z,5.50
2022-11-05T01:00:51.349Z,4.50
2022-11-05T01:03:22.592Z,6.88
2022-11-05T01:05:53.595Z,6.93
2022-11-05T01:08:24.502Z,11.13
2022-11-05T01:10:55.354Z,7.82
2022-11-05T01:13:27.358Z,9.23
2022-11-05T01:15:57.457Z,12.57
2022-11-05T01:18:26.560Z,8.57
2022-11-05T01:20:55.609Z,8.35
2022-11-05T01:23:24.699Z,12.23
2022-11-05T01:25:53.707Z,6.55
2022-11-05T01:28:22.725Z,7.05
2022-11-05T01:30:58.588Z,7.35
2022-11-05T01:33:30.881Z,9.13
2022-11-05T01:36:00.185Z,4.15
2022-11-05T01:38:29.140Z,8.75
2022-11-05T01:40:58.082Z,8.05
2022-11-05T01:43:27.086Z,4.88
2022-11-05T01:45:59.477Z,4.65
2022-11-05T01:48:32.434Z,5.18
2022-11-05T01:51:07.550Z,6.40
2022-11-05T01:53:41.028Z,8.88
2022-11-05T01:56:13.627Z,7.82
2022-11-05T01:58:48.727Z,10.20
2022-11-05T02:01:20.648Z,9.13
2022-11-05T02:03:51.816Z,7.60
2022-11-05T02:06:22.108Z,8.07
2022-11-05T02:08:58.366Z,10.73
2022-11-05T02:11:27.777Z,6.10
2022-11-05T02:13:57.045Z,6.25
2022-11-05T02:16:38.078Z,7.43
2022-11-05T02:19:27.012Z,9.73
2022-11-05T02:22:28.390Z,8.55
2022-11-05T02:25:25.884Z,3.97
2022-11-05T02:28:18.422Z,5.65
2022-11-05T02:30:55.263Z,4.72
2022-11-05T02:33:34.075Z,4.22
2022-11-05T02:36:15.676Z,4.22
2022-11-05T02:38:57.077Z,5.63
2022-11-05T02:44:11.308Z,5.05
2022-11-05T02:46:47.956Z,3.38
2022-11-05T02:49:26.112Z,6.85
2022-11-05T02:51:59.829Z,6.47
2022-11-05T02:54:34.469Z,7.75
2022-11-05T02:57:05.020Z,3.47
2022-11-05T02:59:34.056Z,7.35
2022-11-05T03:02:06.687Z,7.07
2022-11-05T03:04:35.915Z,7.45
2022-11-05T03:07:32.194Z,7.55
2022-11-05T03:10:29.337Z,11.88
2022-11-05T03:13:08.341Z,5.32
2022-11-05T03:15:51.254Z,9.35
2022-11-05T03:18:30.919Z,7.25
2022-11-05T03:21:04.377Z,4.72
2022-11-05T03:23:42.739Z,8.38
2022-11-05T03:26:17.746Z,9.45
2022-11-05T03:28:51.752Z,6.13
2022-11-05T03:31:22.158Z,5.07
2022-11-05T03:33:54.468Z,5.80
2022-11-05T03:36:28.299Z,4.47
2022-11-05T03:39:00.379Z,9.15
2022-11-05T03:41:30.868Z,7.15
2022-11-05T03:44:04.588Z,7.70
2022-11-05T03:46:38.013Z,6.03
2022-11-05T03:49:13.482Z,6.10
2022-11-05T03:51:47.906Z,11.55
2022-11-05T03:54:17.068Z,7.38
2022-11-05T03:56:52.687Z,5.70
2022-11-05T03:59:22.632Z,7.85
2022-11-05T04:01:51.851Z,6.95
2022-11-05T04:04:22.561Z,5.88
2022-11-05T04:07:08.726Z,3.90
2022-11-05T04:09:54.936Z,6.20
2022-11-05T04:12:41.343Z,4.18
2022-11-05T04:15:10.847Z,5.50
2022-11-05T04:17:38.988Z,5.47
2022-11-05T04:20:27.879Z,5.25
2022-11-05T04:23:18.216Z,5.95
2022-11-05T04:25:47.589Z,5.88
2022-11-05T04:28:16.592Z,4.95
2022-11-05T04:30:44.857Z,4.07
2022-11-05T04:33:15.958Z,10.75
2022-11-05T04:35:47.961Z,2.80
2022-11-05T04:38:18.736Z,4.90
2022-11-05T04:40:48.982Z,4.30
2022-11-05T04:43:19.893Z,3.53
2022-11-05T04:45:49.120Z,4.32
2022-11-05T04:48:18.171Z,3.72
2022-11-05T04:50:48.551Z,3.85
2022-11-05T04:53:17.565Z,3.43
2022-11-05T04:55:46.577Z,3.65
2022-11-05T04:58:15.603Z,5.88
2022-11-05T05:00:44.705Z,5.07
2022-11-05T05:03:14.054Z,7.75
2022-11-05T05:05:43.264Z,6.03
2022-11-05T05:08:13.651Z,3.50
2022-11-05T05:10:42.670Z,7.27
2022-11-05T05:13:13.231Z,2.97
2022-11-05T05:15:42.385Z,4.88
2022-11-05T05:18:11.493Z,2.75
2022-11-05T05:20:57.970Z,6.88
2022-11-05T05:23:28.563Z,8.98
2022-11-05T05:26:00.540Z,3.50
2022-11-05T05:28:29.524Z,0.88
2022-11-05T05:31:00.873Z,1.98
2022-11-05T05:35:59.777Z,1.60
2022-11-05T05:38:30.594Z,1.95
2022-11-05T05:41:00.818Z,1.75
2022-11-05T05:43:31.480Z,1.35
2022-11-05T05:46:03.145Z,1.45
2022-11-05T05:48:32.549Z,0.20
2022-11-05T05:51:02.917Z,2.00
2022-11-05T05:53:33.713Z,0.47
2022-11-05T05:56:02.814Z,0.82
2022-11-05T05:58:34.931Z,1.17
2022-11-05T06:01:05.830Z,0.57
2022-11-05T06:03:35.435Z,1.60
2022-11-05T06:06:05.496Z,0.40
2022-11-05T06:08:36.472Z,0.10
2022-11-05T06:11:06.381Z,0.20
2022-11-05T06:13:35.582Z,0.57
2022-11-05T06:16:06.209Z,0.82
2022-11-05T06:18:36.122Z,1.67
2022-11-05T06:21:06.422Z,1.98
2022-11-05T06:23:38.403Z,1.33
2022-11-05T06:26:08.865Z,0.10
2022-11-05T06:28:38.227Z,0.20
2022-11-05T06:31:07.557Z,0.43
2022-11-05T06:33:36.655Z,0.45
2022-11-05T06:36:07.436Z,0.10
2022-11-05T06:38:38.600Z,0.10
2022-11-05T06:41:10.461Z,0.30
2022-11-05T06:43:39.804Z,0.20
2022-11-05T06:46:09.143Z,0.10
2022-11-05T06:48:38.424Z,0.85
2022-11-05T06:51:08.197Z,1.00
2022-11-05T06:53:38.868Z,1.17
2022-11-05T06:56:09.014Z,0.10
2022-11-05T06:58:38.343Z,0.17
2022-11-05T07:01:09.383Z,0.10
2022-11-05T07:03:39.041Z,0.20
2022-11-05T07:06:09.056Z,0.20
2022-11-05T07:08:39.598Z,1.58
2022-11-05T07:11:08.897Z,0.47
2022-11-05T07:13:38.333Z,2.28
2022-11-05T07:16:07.739Z,0.20
2022-11-05T07:18:36.789Z,0.10
2022-11-05T07:21:06.233Z,0.13
2022-11-05T07:23:35.182Z,0.57
2022-11-05T07:26:06.785Z,0.35
2022-11-05T07:28:35.810Z,0.50
2022-11-05T07:31:04.988Z,0.20
2022-11-05T07:33:36.728Z,0.10
2022-11-05T07:36:06.654Z,1.35
2022-11-05T07:38:35.666Z,0.20
2022-11-05T07:41:06.778Z,0.10
2022-11-05T07:43:35.925Z,0.30
2022-11-05T07:46:07.597Z,0.17
2022-11-05T07:48:40.271Z,0.43
2022-11-05T07:51:09.322Z,0.30
2022-11-05T07:53:42.532Z,0.17
2022-11-05T07:56:15.704Z,0.40
2022-11-05T07:58:44.791Z,0.27
2022-11-05T08:01:13.864Z,0.10
2022-11-05T08:03:43.018Z,0.60
2022-11-05T08:06:12.118Z,0.10
2022-11-05T08:08:41.169Z,0.68
2022-11-05T08:11:12.345Z,0.10
2022-11-05T08:13:44.115Z,0.68
2022-11-05T08:16:13.117Z,0.70
2022-11-05T08:18:42.199Z,0.43
2022-11-05T08:21:11.842Z,0.20
2022-11-05T08:23:42.569Z,0.20
2022-11-05T08:26:11.830Z,0.47
2022-11-05T08:28:44.025Z,0.98
2022-11-05T08:31:14.499Z,0.95
2022-11-05T08:33:43.564Z,0.33
2022-11-05T08:36:12.612Z,0.65
2022-11-05T08:38:41.660Z,0.40
2022-11-05T08:41:11.085Z,0.35
2022-11-05T08:43:40.037Z,0.65
2022-11-05T08:46:10.552Z,0.25
2022-11-05T08:48:39.620Z,1.25
2022-11-05T08:51:08.622Z,0.93
2022-11-05T08:53:37.697Z,0.65
2022-11-05T08:56:07.660Z,0.52
2022-11-05T08:58:37.723Z,0.08
2022-11-05T09:01:07.034Z,2.03
2022-11-05T09:03:37.513Z,0.52
2022-11-05T09:06:06.969Z,0.33
2022-11-05T09:08:35.992Z,0.20
2022-11-05T09:11:04.999Z,0.10
2022-11-05T09:13:34.029Z,0.10
2022-11-05T09:16:03.542Z,0.10
2022-11-05T09:18:32.638Z,0.85
2022-11-05T09:21:03.134Z,0.32
2022-11-05T09:23:32.148Z,2.20
2022-11-05T09:26:02.270Z,0.13
2022-11-05T09:28:32.393Z,0.10
2022-11-05T09:31:01.567Z,0.70
2022-11-05T09:33:30.627Z,0.13
2022-11-05T09:36:02.480Z,1.75
2022-11-05T09:38:32.643Z,0.30
2022-11-05T09:41:03.838Z,1.13
2022-11-05T09:43:36.501Z,0.30
2022-11-05T09:46:14.365Z,0.90
2022-11-05T09:48:46.586Z,0.40
2022-11-05T09:51:23.497Z,0.30
2022-11-05T09:53:54.079Z,1.13
2022-11-05T09:56:26.415Z,0.80
2022-11-05T09:59:00.376Z,0.63
2022-11-05T10:01:33.127Z,0.28
2022-11-05T10:04:07.139Z,0.20
2022-11-05T10:06:40.126Z,0.38
2022-11-05T10:09:14.812Z,0.28
2022-11-05T10:11:49.213Z,0.52
2022-11-05T10:14:22.712Z,0.17
2022-11-05T10:16:57.626Z,0.32
2022-11-05T10:19:29.636Z,0.22
2022-11-05T10:22:13.009Z,0.90
2022-11-05T10:24:46.385Z,0.32
2022-11-05T10:27:19.388Z,15.95
2022-11-05T10:29:49.498Z,10.27
2022-11-05T10:32:28.360Z,19.17
2022-11-05T10:35:00.214Z,18.75
2022-11-05T10:37:31.805Z,25.00
2022-11-05T10:40:01.282Z,19.73
2022-11-05T10:42:52.480Z,35.35
2022-11-05T10:45:33.152Z,21.58
2022-11-05T10:48:21.297Z,22.85
2022-11-05T10:50:50.343Z,30.45
2022-11-05T10:53:24.645Z,33.45
2022-11-05T10:55:54.683Z,26.23
2022-11-05T10:58:29.082Z,32.70
2022-11-05T11:01:05.818Z,26.10
2022-11-05T11:03:40.339Z,27.27
2022-11-05T11:06:20.254Z,27.40
2022-11-05T11:08:51.917Z,27.48
2022-11-05T11:11:30.673Z,25.23
2022-11-05T11:14:06.501Z,38.80
2022-11-05T11:16:38.493Z,23.65
2022-11-05T11:19:25.584Z,32.83
2022-11-05T11:22:21.685Z,33.20
2022-11-05T11:24:54.114Z,27.75
2022-11-05T11:27:26.177Z,32.80
2022-11-05T11:30:00.138Z,23.42
2022-11-05T11:32:35.219Z,24.63
2022-11-05T11:35:05.078Z,26.52
2022-11-05T11:37:42.070Z,31.13
2022-11-05T11:40:20.402Z,26.92
2022-11-05T11:42:52.152Z,31.98
2022-11-05T11:45:31.694Z,28.45
2022-11-05T11:48:03.405Z,24.38
2022-11-05T11:50:50.442Z,26.90
2022-11-05T11:53:28.101Z,25.23
2022-11-05T11:56:01.475Z,27.30
2022-11-05T11:58:47.389Z,29.08
2022-11-05T12:01:54.182Z,21.92
2022-11-05T12:04:47.256Z,28.00
2022-11-05T12:07:29.434Z,26.52
2022-11-05T12:10:18.184Z,25.98
2022-11-05T12:12:57.355Z,26.70
2022-11-05T12:15:40.040Z,35.28
2022-11-05T12:18:15.589Z,26.27
2022-11-05T12:21:06.034Z,21.13
2022-11-05T12:24:02.324Z,31.65
2022-11-05T12:26:45.756Z,22.45
2022-11-05T12:29:35.779Z,32.10
2022-11-05T12:32:34.880Z,28.45
2022-11-05T12:35:19.406Z,29.33
2022-11-05T12:37:59.980Z,31.42
2022-11-05T12:40:45.206Z,25.40
2022-11-05T12:43:25.545Z,27.65
2022-11-05T12:46:05.308Z,21.95
2022-11-05T12:48:55.837Z,23.20
2022-11-05T12:51:38.872Z,19.50
2022-11-05T12:54:24.566Z,22.77
2022-11-05T12:56:57.568Z,26.02
2022-11-05T12:59:32.635Z,24.88
2022-11-05T13:02:09.307Z,25.77
2022-11-05T13:04:45.072Z,24.55
2022-11-05T13:07:19.059Z,21.98
2022-11-05T13:09:54.034Z,20.35
2022-11-05T13:12:26.175Z,22.73
2022-11-05T13:14:57.950Z,24.67
2022-11-05T13:17:31.531Z,18.80
2022-11-05T13:20:17.779Z,16.77
2022-11-05T13:22:52.487Z,32.15
2022-11-05T13:25:25.375Z,24.90
2022-11-05T13:27:59.822Z,21.38
2022-11-05T13:30:33.782Z,28.50
2022-11-05T13:33:11.831Z,20.35
2022-11-05T13:35:46.391Z,21.85
2022-11-05T13:38:40.488Z,23.63
2022-11-05T13:41:25.967Z,22.27
2022-11-05T13:44:08.853Z,20.50
2022-11-05T13:47:08.271Z,18.70
2022-11-05T13:49:54.303Z,26.77
2022-11-05T13:52:44.811Z,27.00
2022-11-05T13:55:54.894Z,20.48
2022-11-05T13:58:47.658Z,28.30
2022-11-05T14:01:27.307Z,21.67
2022-11-05T14:03:57.894Z,17.90
2022-11-05T14:06:32.281Z,20.80
2022-11-05T14:09:04.623Z,21.08
2022-11-05T14:11:36.161Z,19.08
2022-11-05T14:14:09.073Z,23.75
2022-11-05T14:16:51.085Z,17.95
2022-11-05T14:19:35.242Z,16.30
2022-11-05T14:22:46.052Z,19.30
2022-11-05T14:26:00.870Z,22.27
2022-11-05T14:28:43.659Z,27.77
2022-11-05T14:32:02.728Z,20.27
2022-11-05T14:34:41.500Z,26.80
2022-11-05T14:37:25.370Z,28.27
2022-11-05T14:39:55.816Z,19.42
2022-11-05T14:42:29.002Z,22.27
2022-11-05T14:45:22.213Z,15.93
2022-11-05T14:47:59.957Z,22.67
2022-11-05T14:50:34.731Z,21.13
2022-11-05T14:53:12.036Z,22.42
2022-11-05T14:55:43.787Z,25.65
2022-11-05T14:58:33.170Z,22.08
2022-11-05T15:01:06.618Z,20.17
2022-11-05T15:04:03.481Z,19.50
2022-11-05T15:06:35.628Z,23.90
2022-11-05T15:09:30.791Z,16.30
2022-11-05T15:12:09.777Z,14.52
2022-11-05T15:14:48.153Z,26.27
2022-11-05T15:17:26.671Z,25.77
2022-11-05T15:19:56.105Z,24.30
2022-11-05T15:22:32.222Z,20.38
2022-11-05T15:25:01.440Z,24.05
2022-11-05T15:27:45.799Z,39.55
2022-11-05T15:30:19.914Z,42.05
2022-11-05T15:32:50.559Z,34.45
2022-11-05T15:35:23.591Z,23.50
2022-11-05T15:37:58.814Z,25.63
2022-11-05T15:40:32.859Z,19.48
2022-11-05T15:43:16.465Z,19.70
2022-11-05T15:45:58.374Z,22.20
2022-11-05T15:48:28.848Z,30.05
2022-11-05T15:50:58.148Z,25.50
2022-11-05T15:53:51.482Z,24.90
2022-11-05T15:56:30.293Z,26.23
2022-11-05T15:59:02.651Z,22.52
2022-11-05T16:01:34.463Z,28.48
2022-11-05T16:04:16.457Z,33.35
2022-11-05T16:06:48.055Z,29.80
2022-11-05T16:09:26.052Z,27.45
2022-11-05T16:12:16.265Z,20.45
2022-11-05T16:14:46.130Z,30.13
2022-11-05T16:17:21.179Z,24.38
2022-11-05T16:19:52.359Z,25.65
2022-11-05T16:22:21.554Z,21.50
2022-11-05T16:24:50.903Z,31.10
2022-11-05T16:27:21.584Z,24.85
2022-11-05T16:29:52.935Z,27.25
2022-11-05T16:35:02.857Z,30.75
2022-11-05T16:37:39.779Z,28.15
2022-11-05T16:40:15.408Z,24.75
2022-11-05T16:42:48.303Z,22.25
2022-11-05T16:45:19.517Z,25.42
2022-11-05T16:47:48.948Z,24.50
2022-11-05T16:50:22.814Z,25.05
2022-11-05T16:52:52.252Z,29.40
2022-11-05T16:55:21.603Z,26.42
2022-11-05T16:57:53.659Z,42.97
2022-11-05T17:00:24.108Z,45.60
2022-11-05T17:02:53.999Z,38.03
2022-11-05T17:05:26.646Z,39.38
2022-11-05T17:07:56.071Z,38.30
2022-11-05T17:10:27.378Z,45.30
2022-11-05T17:12:56.721Z,33.88
2022-11-05T17:15:29.280Z,32.78
2022-11-05T17:17:59.759Z,36.05
2022-11-05T17:20:39.894Z,60.47
2022-11-05T17:23:11.480Z,45.83
2022-11-05T17:25:41.946Z,32.10
2022-11-05T17:28:12.008Z,27.40
2022-11-05T17:30:42.060Z,32.50
2022-11-05T17:33:12.540Z,27.63
2022-11-05T17:35:43.872Z,45.58
2022-11-05T17:38:13.371Z,36.63
2022-11-05T17:40:42.886Z,45.90
2022-11-05T17:43:12.129Z,69.63
2022-11-05T17:45:45.305Z,83.30
2022-11-05T17:48:16.251Z,42.33
2022-11-05T17:50:49.731Z,39.63
2022-11-05T17:53:20.509Z,38.85
2022-11-05T17:55:50.127Z,32.25
2022-11-05T17:58:19.193Z,40.40
2022-11-05T18:00:49.084Z,38.80
2022-11-05T18:03:18.270Z,37.78
2022-11-05T18:05:48.751Z,38.55
2022-11-05T18:08:17.789Z,46.27
2022-11-05T18:10:46.885Z,181.63
2022-11-05T18:13:16.097Z,66.78
2022-11-05T18:15:45.280Z,111.43
2022-11-05T18:18:14.392Z,48.08
2022-11-05T18:20:43.773Z,39.78
2022-11-05T18:23:14.631Z,33.65
2022-11-05T18:25:44.540Z,43.88
2022-11-05T18:28:14.935Z,25.40
2022-11-05T18:30:44.269Z,29.55
2022-11-05T18:33:13.567Z,30.15
2022-11-05T18:35:43.465Z,25.80
2022-11-05T18:38:14.183Z,23.60
2022-11-05T18:40:43.182Z,29.40
2022-11-05T18:43:12.884Z,32.08
2022-11-05T18:45:42.207Z,30.67
2022-11-05T18:48:11.779Z,46.45
2022-11-05T18:50:41.374Z,34.15
2022-11-05T18:53:10.356Z,31.48
2022-11-05T18:55:41.899Z,33.20
2022-11-05T18:58:11.243Z,28.58
2022-11-05T19:00:41.164Z,21.88
2022-11-05T19:03:10.796Z,31.00
2022-11-05T19:05:39.975Z,30.60
2022-11-05T19:08:09.398Z,29.05
2022-11-05T19:10:42.416Z,36.00
2022-11-05T19:13:11.520Z,22.55
2022-11-05T19:15:43.928Z,24.77
2022-11-05T19:18:13.518Z,31.35
2022-11-05T19:20:43.049Z,33.88
2022-11-05T19:23:12.116Z,27.75
2022-11-05T19:25:42.589Z,27.35
2022-11-05T19:28:11.823Z,28.63
2022-11-05T19:30:41.220Z,30.33
2022-11-05T19:33:10.359Z,31.77
2022-11-05T19:35:41.659Z,29.13
2022-11-05T19:40:39.910Z,23.48
2022-11-05T19:43:10.586Z,27.92
2022-11-05T19:45:44.953Z,21.87
2022-11-05T19:48:19.402Z,23.05
2022-11-05T19:50:48.646Z,25.13
2022-11-05T19:53:17.641Z,26.80
2022-11-05T19:55:46.887Z,26.17
2022-11-05T19:58:18.056Z,21.00
2022-11-05T20:00:47.112Z,27.75
2022-11-05T20:03:16.162Z,25.80
2022-11-05T20:05:45.272Z,24.20
2022-11-05T20:08:14.764Z,24.63
2022-11-05T20:10:44.153Z,29.27
2022-11-05T20:13:19.456Z,19.65
2022-11-05T20:15:50.467Z,18.65
2022-11-05T20:18:19.564Z,21.20
2022-11-05T20:20:49.186Z,21.08
2022-11-05T20:23:18.165Z,19.52
2022-11-05T20:25:47.155Z,24.95
2022-11-05T20:28:16.148Z,16.73
2022-11-05T20:30:45.231Z,23.95
2022-11-05T20:33:15.721Z,16.33
2022-11-05T20:35:44.916Z,29.57
2022-11-05T20:38:14.670Z,44.00
2022-11-05T20:40:44.019Z,38.60
2022-11-05T20:43:13.144Z,30.13
2022-11-05T20:45:42.194Z,28.90
2022-11-05T20:48:11.721Z,24.45
2022-11-05T20:50:43.329Z,30.98
2022-11-05T20:55:44.079Z,25.40
2022-11-05T20:58:14.159Z,26.05
2022-11-05T21:00:51.081Z,19.25
2022-11-05T21:03:20.783Z,18.50
2022-11-05T21:05:56.537Z,25.92
2022-11-05T21:08:26.065Z,29.40
2022-11-05T21:10:56.608Z,25.65
2022-11-05T21:13:26.421Z,19.45
2022-11-05T21:15:58.078Z,20.88
2022-11-05T21:18:29.093Z,23.55
2022-11-05T21:21:00.535Z,18.58
2022-11-05T21:23:29.997Z,18.50
2022-11-05T21:25:59.341Z,22.60
2022-11-05T21:28:28.725Z,22.80
2022-11-05T21:31:02.101Z,25.33
2022-11-05T21:33:34.107Z,18.67
2022-11-05T21:36:09.512Z,21.98
2022-11-05T21:38:39.416Z,19.27
2022-11-05T21:41:09.447Z,31.13
2022-11-05T21:43:39.870Z,18.70
2022-11-05T21:46:09.150Z,21.63
2022-11-05T21:48:38.370Z,22.75
2022-11-05T21:51:28.390Z,23.83
2022-11-05T21:54:16.043Z,20.30
2022-11-05T21:57:08.201Z,24.52
2022-11-05T21:59:53.048Z,18.50
2022-11-05T22:02:24.286Z,24.20
2022-11-05T22:07:26.406Z,22.55
2022-11-05T22:09:55.910Z,25.75
2022-11-05T22:12:25.542Z,23.95
2022-11-05T22:14:55.108Z,20.70
2022-11-05T22:17:24.471Z,30.27
2022-11-05T22:19:53.688Z,32.75
2022-11-05T22:22:24.417Z,22.73
2022-11-05T22:24:53.693Z,22.88
2022-11-05T22:27:23.084Z,24.42
2022-11-05T22:29:54.499Z,26.45
2022-11-05T22:34:52.315Z,27.40
2022-11-05T22:37:21.338Z,28.80
2022-11-05T22:39:52.050Z,31.40
2022-11-05T22:42:21.203Z,27.90
2022-11-05T22:44:50.239Z,24.05
2022-11-05T22:47:19.437Z,17.30
2022-11-05T22:49:51.226Z,25.98
2022-11-05T22:52:20.317Z,30.75
2022-11-05T22:54:49.342Z,24.52
2022-11-05T22:57:19.748Z,31.98
2022-11-05T22:59:49.093Z,21.17
2022-11-05T23:02:18.241Z,33.25
2022-11-05T23:04:48.893Z,31.33
2022-11-05T23:07:36.325Z,28.43
2022-11-05T23:10:22.953Z,30.88
2022-11-05T23:12:53.402Z,24.98
2022-11-05T23:15:40.845Z,27.07
2022-11-05T23:18:33.480Z,25.52
2022-11-05T23:21:22.979Z,32.15
2022-11-05T23:24:07.287Z,42.85
2022-11-05T23:26:52.635Z,30.33
2022-11-05T23:29:24.947Z,24.45
2022-11-05T23:32:12.147Z,28.25
2022-11-05T23:34:41.379Z,21.98
2022-11-05T23:37:28.361Z,23.88
2022-11-05T23:39:57.391Z,24.10
2022-11-05T23:42:43.912Z,31.23
2022-11-05T23:45:31.973Z,26.70
2022-11-05T23:48:19.423Z,21.90
2022-11-05T23:50:51.903Z,23.60
2022-11-05T23:53:21.733Z,19.40
2022-11-05T23:55:51.350Z,29.05
2022-11-05T23:58:20.792Z,27.60
